sensor_id;sensor_type;location;lat;lon;timestamp;P1;durP1;ratioP1;P2;durP2;ratioP2
78752;SDS011;68072;51.688;7.842;2023-05-21T00:00:24;7.15;;;4.70;;
78752;SDS011;68072;51.688;7.842;2023-05-21T00:02:50;7.30;;;5.05;;
78752;SDS011;68072;51.688;7.842;2023-05-21T00:05:15;7.13;;;4.47;;
78752;SDS011;68072;51.688;7.842;2023-05-21T00:07:42;6.85;;;4.20;;
78752;SDS011;68072;51.688;7.842;2023-05-21T00:10:08;6.10;;;4.30;;
78752;SDS011;68072;51.688;7.842;2023-05-21T00:12:34;4.68;;;3.97;;
78752;SDS011;68072;51.688;7.842;2023-05-21T00:15:00;5.18;;;4.15;;
78752;SDS011;68072;51.688;7.842;2023-05-21T00:17:26;7.95;;;4.55;;
78752;SDS011;68072;51.688;7.842;2023-05-21T00:19:52;7.18;;;4.78;;
78752;SDS011;68072;51.688;7.842;2023-05-21T00:22:18;5.95;;;4.53;;
78752;SDS011;68072;51.688;7.842;2023-05-21T00:24:44;6.80;;;4.53;;
78752;SDS011;68072;51.688;7.842;2023-05-21T00:27:10;8.52;;;4.22;;
78752;SDS011;68072;51.688;7.842;2023-05-21T00:29:38;7.30;;;4.57;;
78752;SDS011;68072;51.688;7.842;2023-05-21T00:32:04;7.45;;;4.78;;
78752;SDS011;68072;51.688;7.842;2023-05-21T00:34:30;5.50;;;4.30;;
78752;SDS011;68072;51.688;7.842;2023-05-21T00:36:55;6.93;;;4.10;;
78752;SDS011;68072;51.688;7.842;2023-05-21T00:39:21;7.35;;;4.63;;
78752;SDS011;68072;51.688;7.842;2023-05-21T00:44:13;6.37;;;4.47;;
78752;SDS011;68072;51.688;7.842;2023-05-21T00:46:39;6.40;;;4.68;;
78752;SDS011;68072;51.688;7.842;2023-05-21T00:51:30;4.93;;;3.90;;
78752;SDS011;68072;51.688;7.842;2023-05-21T00:53:56;6.32;;;4.30;;
78752;SDS011;68072;51.688;7.842;2023-05-21T00:56:22;7.35;;;4.40;;
78752;SDS011;68072;51.688;7.842;2023-05-21T00:58:49;8.88;;;4.50;;
78752;SDS011;68072;51.688;7.842;2023-05-21T01:01:16;6.18;;;4.63;;
78752;SDS011;68072;51.688;7.842;2023-05-21T01:03:42;6.32;;;4.50;;
78752;SDS011;68072;51.688;7.842;2023-05-21T01:06:08;7.90;;;4.68;;
78752;SDS011;68072;51.688;7.842;2023-05-21T01:08:35;7.00;;;4.22;;
78752;SDS011;68072;51.688;7.842;2023-05-21T01:11:05;6.68;;;4.93;;
78752;SDS011;68072;51.688;7.842;2023-05-21T01:15:57;5.95;;;4.78;;
78752;SDS011;68072;51.688;7.842;2023-05-21T01:18:23;6.40;;;4.70;;
78752;SDS011;68072;51.688;7.842;2023-05-21T01:20:49;6.75;;;4.85;;
78752;SDS011;68072;51.688;7.842;2023-05-21T01:23:18;7.35;;;4.85;;
78752;SDS011;68072;51.688;7.842;2023-05-21T01:25:44;7.53;;;5.70;;
78752;SDS011;68072;51.688;7.842;2023-05-21T01:30:36;7.80;;;4.95;;
78752;SDS011;68072;51.688;7.842;2023-05-21T01:33:03;6.78;;;4.38;;
78752;SDS011;68072;51.688;7.842;2023-05-21T01:35:37;7.47;;;4.82;;
78752;SDS011;68072;51.688;7.842;2023-05-21T01:38:06;7.00;;;4.78;;
78752;SDS011;68072;51.688;7.842;2023-05-21T01:43:13;5.93;;;4.72;;
78752;SDS011;68072;51.688;7.842;2023-05-21T01:45:39;7.30;;;4.78;;
78752;SDS011;68072;51.688;7.842;2023-05-21T01:48:06;11.38;;;5.47;;
78752;SDS011;68072;51.688;7.842;2023-05-21T01:50:34;7.43;;;5.07;;
78752;SDS011;68072;51.688;7.842;2023-05-21T01:55:25;9.30;;;5.53;;
78752;SDS011;68072;51.688;7.842;2023-05-21T01:57:52;9.63;;;5.72;;
78752;SDS011;68072;51.688;7.842;2023-05-21T02:00:19;7.90;;;5.82;;
78752;SDS011;68072;51.688;7.842;2023-05-21T02:02:48;7.25;;;5.40;;
78752;SDS011;68072;51.688;7.842;2023-05-21T02:05:14;8.35;;;5.53;;
78752;SDS011;68072;51.688;7.842;2023-05-21T02:07:40;6.60;;;5.07;;
78752;SDS011;68072;51.688;7.842;2023-05-21T02:10:08;12.32;;;5.47;;
78752;SDS011;68072;51.688;7.842;2023-05-21T02:12:34;6.55;;;5.13;;
78752;SDS011;68072;51.688;7.842;2023-05-21T02:14:59;6.97;;;5.50;;
78752;SDS011;68072;51.688;7.842;2023-05-21T02:17:25;9.15;;;5.68;;
78752;SDS011;68072;51.688;7.842;2023-05-21T02:19:50;7.32;;;5.50;;
78752;SDS011;68072;51.688;7.842;2023-05-21T02:22:16;8.20;;;5.95;;
78752;SDS011;68072;51.688;7.842;2023-05-21T02:24:41;8.00;;;5.65;;
78752;SDS011;68072;51.688;7.842;2023-05-21T02:27:07;11.75;;;6.13;;
78752;SDS011;68072;51.688;7.842;2023-05-21T02:29:34;8.13;;;5.85;;
78752;SDS011;68072;51.688;7.842;2023-05-21T02:32:02;8.45;;;5.43;;
78752;SDS011;68072;51.688;7.842;2023-05-21T02:34:28;7.03;;;5.70;;
78752;SDS011;68072;51.688;7.842;2023-05-21T02:36:56;8.60;;;6.25;;
78752;SDS011;68072;51.688;7.842;2023-05-21T02:39:22;9.38;;;6.35;;
78752;SDS011;68072;51.688;7.842;2023-05-21T02:41:48;9.32;;;6.43;;
78752;SDS011;68072;51.688;7.842;2023-05-21T02:44:13;6.68;;;5.75;;
78752;SDS011;68072;51.688;7.842;2023-05-21T02:46:39;9.27;;;6.00;;
78752;SDS011;68072;51.688;7.842;2023-05-21T02:49:04;8.25;;;6.13;;
78752;SDS011;68072;51.688;7.842;2023-05-21T02:51:30;9.13;;;6.22;;
78752;SDS011;68072;51.688;7.842;2023-05-21T02:53:55;7.55;;;5.70;;
78752;SDS011;68072;51.688;7.842;2023-05-21T02:56:21;8.55;;;5.38;;
78752;SDS011;68072;51.688;7.842;2023-05-21T02:58:46;7.68;;;6.82;;
78752;SDS011;68072;51.688;7.842;2023-05-21T03:01:11;9.52;;;6.25;;
78752;SDS011;68072;51.688;7.842;2023-05-21T03:03:37;9.02;;;6.25;;
78752;SDS011;68072;51.688;7.842;2023-05-21T03:06:02;9.80;;;6.38;;
78752;SDS011;68072;51.688;7.842;2023-05-21T03:08:28;8.65;;;6.55;;
78752;SDS011;68072;51.688;7.842;2023-05-21T03:10:53;15.27;;;7.60;;
78752;SDS011;68072;51.688;7.842;2023-05-21T03:13:19;8.90;;;6.65;;
78752;SDS011;68072;51.688;7.842;2023-05-21T03:15:45;9.43;;;6.53;;
78752;SDS011;68072;51.688;7.842;2023-05-21T03:18:10;9.05;;;7.35;;
78752;SDS011;68072;51.688;7.842;2023-05-21T03:20:37;10.10;;;6.32;;
78752;SDS011;68072;51.688;7.842;2023-05-21T03:23:07;8.25;;;6.45;;
78752;SDS011;68072;51.688;7.842;2023-05-21T03:25:33;9.48;;;7.57;;
78752;SDS011;68072;51.688;7.842;2023-05-21T03:27:58;10.80;;;7.20;;
78752;SDS011;68072;51.688;7.842;2023-05-21T03:30:23;7.90;;;6.10;;
78752;SDS011;68072;51.688;7.842;2023-05-21T03:32:49;9.88;;;6.40;;
78752;SDS011;68072;51.688;7.842;2023-05-21T03:35:15;10.13;;;6.55;;
78752;SDS011;68072;51.688;7.842;2023-05-21T03:37:40;8.88;;;6.13;;
78752;SDS011;68072;51.688;7.842;2023-05-21T03:40:06;8.48;;;6.43;;
78752;SDS011;68072;51.688;7.842;2023-05-21T03:42:32;9.35;;;6.35;;
78752;SDS011;68072;51.688;7.842;2023-05-21T03:44:57;11.02;;;6.40;;
78752;SDS011;68072;51.688;7.842;2023-05-21T03:47:23;7.82;;;6.28;;
78752;SDS011;68072;51.688;7.842;2023-05-21T03:49:48;8.45;;;6.57;;
78752;SDS011;68072;51.688;7.842;2023-05-21T03:52:13;9.88;;;6.25;;
78752;SDS011;68072;51.688;7.842;2023-05-21T03:54:39;10.23;;;7.43;;
78752;SDS011;68072;51.688;7.842;2023-05-21T03:57:04;10.00;;;6.53;;
78752;SDS011;68072;51.688;7.842;2023-05-21T03:59:30;9.82;;;7.30;;
78752;SDS011;68072;51.688;7.842;2023-05-21T04:01:55;8.68;;;6.68;;
78752;SDS011;68072;51.688;7.842;2023-05-21T04:04:20;9.70;;;6.88;;
78752;SDS011;68072;51.688;7.842;2023-05-21T04:06:46;11.10;;;6.57;;
78752;SDS011;68072;51.688;7.842;2023-05-21T04:09:12;10.02;;;7.32;;
78752;SDS011;68072;51.688;7.842;2023-05-21T04:11:37;10.77;;;6.80;;
78752;SDS011;68072;51.688;7.842;2023-05-21T04:14:03;14.02;;;6.32;;
78752;SDS011;68072;51.688;7.842;2023-05-21T04:16:28;9.55;;;6.82;;
78752;SDS011;68072;51.688;7.842;2023-05-21T04:18:53;8.30;;;6.65;;
78752;SDS011;68072;51.688;7.842;2023-05-21T04:21:19;8.48;;;6.65;;
78752;SDS011;68072;51.688;7.842;2023-05-21T04:23:45;9.35;;;6.28;;
78752;SDS011;68072;51.688;7.842;2023-05-21T04:26:10;9.77;;;7.35;;
78752;SDS011;68072;51.688;7.842;2023-05-21T04:28:36;10.50;;;6.72;;
78752;SDS011;68072;51.688;7.842;2023-05-21T04:31:02;9.30;;;6.50;;
78752;SDS011;68072;51.688;7.842;2023-05-21T04:33:27;9.88;;;6.45;;
78752;SDS011;68072;51.688;7.842;2023-05-21T04:35:52;10.38;;;6.57;;
78752;SDS011;68072;51.688;7.842;2023-05-21T04:40:46;8.95;;;6.28;;
78752;SDS011;68072;51.688;7.842;2023-05-21T04:43:14;9.80;;;7.18;;
78752;SDS011;68072;51.688;7.842;2023-05-21T04:48:06;8.63;;;6.25;;
78752;SDS011;68072;51.688;7.842;2023-05-21T04:50:32;8.82;;;6.38;;
78752;SDS011;68072;51.688;7.842;2023-05-21T04:52:57;10.93;;;6.43;;
78752;SDS011;68072;51.688;7.842;2023-05-21T04:55:23;9.07;;;6.75;;
78752;SDS011;68072;51.688;7.842;2023-05-21T04:57:49;8.05;;;6.15;;
78752;SDS011;68072;51.688;7.842;2023-05-21T05:00:15;10.88;;;6.43;;
78752;SDS011;68072;51.688;7.842;2023-05-21T05:02:41;13.65;;;7.13;;
78752;SDS011;68072;51.688;7.842;2023-05-21T05:05:06;9.13;;;6.88;;
78752;SDS011;68072;51.688;7.842;2023-05-21T05:07:32;8.88;;;6.55;;
78752;SDS011;68072;51.688;7.842;2023-05-21T05:09:57;9.40;;;6.35;;
78752;SDS011;68072;51.688;7.842;2023-05-21T05:12:23;10.32;;;6.65;;
78752;SDS011;68072;51.688;7.842;2023-05-21T05:14:48;8.48;;;6.82;;
78752;SDS011;68072;51.688;7.842;2023-05-21T05:17:14;8.02;;;6.45;;
78752;SDS011;68072;51.688;7.842;2023-05-21T05:19:39;11.00;;;7.25;;
78752;SDS011;68072;51.688;7.842;2023-05-21T05:22:05;9.50;;;6.63;;
78752;SDS011;68072;51.688;7.842;2023-05-21T05:24:30;11.18;;;7.90;;
78752;SDS011;68072;51.688;7.842;2023-05-21T05:26:56;11.10;;;6.38;;
78752;SDS011;68072;51.688;7.842;2023-05-21T05:29:21;9.73;;;6.72;;
78752;SDS011;68072;51.688;7.842;2023-05-21T05:31:47;9.55;;;6.82;;
78752;SDS011;68072;51.688;7.842;2023-05-21T05:34:12;8.65;;;6.20;;
78752;SDS011;68072;51.688;7.842;2023-05-21T05:36:37;8.23;;;6.45;;
78752;SDS011;68072;51.688;7.842;2023-05-21T05:39:03;8.00;;;6.43;;
78752;SDS011;68072;51.688;7.842;2023-05-21T05:41:28;9.55;;;6.93;;
78752;SDS011;68072;51.688;7.842;2023-05-21T05:43:54;9.30;;;6.78;;
78752;SDS011;68072;51.688;7.842;2023-05-21T05:46:23;10.80;;;6.00;;
78752;SDS011;68072;51.688;7.842;2023-05-21T05:48:49;11.63;;;6.63;;
78752;SDS011;68072;51.688;7.842;2023-05-21T05:51:14;8.43;;;6.03;;
78752;SDS011;68072;51.688;7.842;2023-05-21T05:53:41;8.55;;;6.35;;
78752;SDS011;68072;51.688;7.842;2023-05-21T05:56:06;9.27;;;6.75;;
78752;SDS011;68072;51.688;7.842;2023-05-21T05:58:32;13.02;;;6.97;;
78752;SDS011;68072;51.688;7.842;2023-05-21T06:00:57;9.20;;;6.40;;
78752;SDS011;68072;51.688;7.842;2023-05-21T06:03:22;8.73;;;6.15;;
78752;SDS011;68072;51.688;7.842;2023-05-21T06:05:48;8.15;;;6.13;;
78752;SDS011;68072;51.688;7.842;2023-05-21T06:08:14;9.93;;;6.93;;
78752;SDS011;68072;51.688;7.842;2023-05-21T06:10:39;10.23;;;6.80;;
78752;SDS011;68072;51.688;7.842;2023-05-21T06:13:05;9.82;;;7.45;;
78752;SDS011;68072;51.688;7.842;2023-05-21T06:15:30;11.63;;;6.47;;
78752;SDS011;68072;51.688;7.842;2023-05-21T06:17:56;10.18;;;7.25;;
78752;SDS011;68072;51.688;7.842;2023-05-21T06:20:21;12.07;;;6.30;;
78752;SDS011;68072;51.688;7.842;2023-05-21T06:22:46;11.25;;;7.10;;
78752;SDS011;68072;51.688;7.842;2023-05-21T06:25:12;10.65;;;7.45;;
78752;SDS011;68072;51.688;7.842;2023-05-21T06:27:37;11.27;;;8.13;;
78752;SDS011;68072;51.688;7.842;2023-05-21T06:30:02;9.40;;;7.03;;
78752;SDS011;68072;51.688;7.842;2023-05-21T06:32:28;12.48;;;7.13;;
78752;SDS011;68072;51.688;7.842;2023-05-21T06:34:54;10.77;;;7.55;;
78752;SDS011;68072;51.688;7.842;2023-05-21T06:37:19;9.15;;;6.70;;
78752;SDS011;68072;51.688;7.842;2023-05-21T06:39:45;11.25;;;7.30;;
78752;SDS011;68072;51.688;7.842;2023-05-21T06:42:11;11.93;;;7.07;;
78752;SDS011;68072;51.688;7.842;2023-05-21T06:44:36;11.23;;;7.68;;
78752;SDS011;68072;51.688;7.842;2023-05-21T06:47:01;9.98;;;7.22;;
78752;SDS011;68072;51.688;7.842;2023-05-21T06:49:27;10.85;;;7.88;;
78752;SDS011;68072;51.688;7.842;2023-05-21T06:51:52;10.45;;;6.97;;
78752;SDS011;68072;51.688;7.842;2023-05-21T06:54:18;9.23;;;7.13;;
78752;SDS011;68072;51.688;7.842;2023-05-21T06:56:43;10.82;;;7.43;;
78752;SDS011;68072;51.688;7.842;2023-05-21T06:59:09;9.43;;;7.70;;
78752;SDS011;68072;51.688;7.842;2023-05-21T07:01:34;10.70;;;6.95;;
78752;SDS011;68072;51.688;7.842;2023-05-21T07:04:00;11.27;;;6.93;;
78752;SDS011;68072;51.688;7.842;2023-05-21T07:06:25;9.32;;;6.82;;
78752;SDS011;68072;51.688;7.842;2023-05-21T07:08:51;11.23;;;7.40;;
78752;SDS011;68072;51.688;7.842;2023-05-21T07:11:16;10.98;;;7.50;;
78752;SDS011;68072;51.688;7.842;2023-05-21T07:13:41;10.30;;;6.93;;
78752;SDS011;68072;51.688;7.842;2023-05-21T07:16:07;11.50;;;7.20;;
78752;SDS011;68072;51.688;7.842;2023-05-21T07:18:32;10.38;;;6.85;;
78752;SDS011;68072;51.688;7.842;2023-05-21T07:20:58;11.20;;;7.53;;
78752;SDS011;68072;51.688;7.842;2023-05-21T07:23:23;12.57;;;7.47;;
78752;SDS011;68072;51.688;7.842;2023-05-21T07:25:48;8.85;;;7.15;;
78752;SDS011;68072;51.688;7.842;2023-05-21T07:28:16;14.35;;;7.10;;
78752;SDS011;68072;51.688;7.842;2023-05-21T07:30:41;11.27;;;7.72;;
78752;SDS011;68072;51.688;7.842;2023-05-21T07:33:07;11.18;;;7.65;;
78752;SDS011;68072;51.688;7.842;2023-05-21T07:35:32;12.07;;;8.02;;
78752;SDS011;68072;51.688;7.842;2023-05-21T07:37:58;10.75;;;8.23;;
78752;SDS011;68072;51.688;7.842;2023-05-21T07:40:23;13.15;;;8.05;;
78752;SDS011;68072;51.688;7.842;2023-05-21T07:42:49;9.77;;;7.70;;
78752;SDS011;68072;51.688;7.842;2023-05-21T07:45:14;12.07;;;7.85;;
78752;SDS011;68072;51.688;7.842;2023-05-21T07:47:40;10.52;;;7.40;;
78752;SDS011;68072;51.688;7.842;2023-05-21T07:50:05;13.88;;;8.20;;
78752;SDS011;68072;51.688;7.842;2023-05-21T07:52:31;13.07;;;8.50;;
78752;SDS011;68072;51.688;7.842;2023-05-21T07:54:56;9.57;;;7.72;;
78752;SDS011;68072;51.688;7.842;2023-05-21T07:57:22;12.82;;;7.88;;
78752;SDS011;68072;51.688;7.842;2023-05-21T07:59:48;10.60;;;8.07;;
78752;SDS011;68072;51.688;7.842;2023-05-21T08:02:13;13.32;;;7.68;;
78752;SDS011;68072;51.688;7.842;2023-05-21T08:04:39;13.10;;;8.05;;
78752;SDS011;68072;51.688;7.842;2023-05-21T08:07:04;11.95;;;8.18;;
78752;SDS011;68072;51.688;7.842;2023-05-21T08:09:30;13.35;;;7.82;;
78752;SDS011;68072;51.688;7.842;2023-05-21T08:11:56;12.20;;;8.30;;
78752;SDS011;68072;51.688;7.842;2023-05-21T08:14:21;14.48;;;8.80;;
78752;SDS011;68072;51.688;7.842;2023-05-21T08:16:47;12.35;;;8.38;;
78752;SDS011;68072;51.688;7.842;2023-05-21T08:19:12;11.48;;;8.82;;
78752;SDS011;68072;51.688;7.842;2023-05-21T08:21:37;11.48;;;7.80;;
78752;SDS011;68072;51.688;7.842;2023-05-21T08:24:03;14.15;;;8.15;;
78752;SDS011;68072;51.688;7.842;2023-05-21T08:26:29;13.68;;;7.95;;
78752;SDS011;68072;51.688;7.842;2023-05-21T08:28:55;13.90;;;8.15;;
78752;SDS011;68072;51.688;7.842;2023-05-21T08:31:20;13.02;;;8.45;;
78752;SDS011;68072;51.688;7.842;2023-05-21T08:33:49;12.73;;;8.48;;
78752;SDS011;68072;51.688;7.842;2023-05-21T08:36:18;11.70;;;8.70;;
78752;SDS011;68072;51.688;7.842;2023-05-21T08:38:43;11.77;;;8.43;;
78752;SDS011;68072;51.688;7.842;2023-05-21T08:43:35;15.52;;;8.40;;
78752;SDS011;68072;51.688;7.842;2023-05-21T08:46:02;13.38;;;8.52;;
78752;SDS011;68072;51.688;7.842;2023-05-21T08:48:28;12.05;;;8.60;;
78752;SDS011;68072;51.688;7.842;2023-05-21T08:50:55;15.85;;;9.63;;
78752;SDS011;68072;51.688;7.842;2023-05-21T08:53:21;13.85;;;9.52;;
78752;SDS011;68072;51.688;7.842;2023-05-21T08:55:47;12.75;;;8.50;;
78752;SDS011;68072;51.688;7.842;2023-05-21T08:58:15;10.45;;;8.18;;
78752;SDS011;68072;51.688;7.842;2023-05-21T09:03:05;11.80;;;8.70;;
78752;SDS011;68072;51.688;7.842;2023-05-21T09:05:43;10.32;;;8.52;;
78752;SDS011;68072;51.688;7.842;2023-05-21T09:10:47;12.02;;;8.40;;
78752;SDS011;68072;51.688;7.842;2023-05-21T09:13:15;12.40;;;8.68;;
78752;SDS011;68072;51.688;7.842;2023-05-21T09:15:41;15.60;;;9.25;;
78752;SDS011;68072;51.688;7.842;2023-05-21T09:18:08;14.90;;;9.60;;
78752;SDS011;68072;51.688;7.842;2023-05-21T09:23:01;15.17;;;9.50;;
78752;SDS011;68072;51.688;7.842;2023-05-21T09:25:27;15.77;;;10.57;;
78752;SDS011;68072;51.688;7.842;2023-05-21T09:30:22;14.50;;;8.85;;
78752;SDS011;68072;51.688;7.842;2023-05-21T09:32:55;15.60;;;9.52;;
78752;SDS011;68072;51.688;7.842;2023-05-21T09:35:22;16.02;;;11.15;;
78752;SDS011;68072;51.688;7.842;2023-05-21T09:40:20;14.75;;;9.77;;
78752;SDS011;68072;51.688;7.842;2023-05-21T09:45:22;15.90;;;9.57;;
78752;SDS011;68072;51.688;7.842;2023-05-21T09:47:50;14.13;;;9.50;;
78752;SDS011;68072;51.688;7.842;2023-05-21T09:50:26;15.35;;;10.65;;
78752;SDS011;68072;51.688;7.842;2023-05-21T09:52:52;17.15;;;9.75;;
78752;SDS011;68072;51.688;7.842;2023-05-21T09:57:46;14.75;;;10.32;;
78752;SDS011;68072;51.688;7.842;2023-05-21T10:00:18;13.25;;;9.43;;
78752;SDS011;68072;51.688;7.842;2023-05-21T10:02:45;15.45;;;10.40;;
78752;SDS011;68072;51.688;7.842;2023-05-21T10:05:15;13.52;;;10.50;;
78752;SDS011;68072;51.688;7.842;2023-05-21T10:07:41;15.60;;;9.90;;
78752;SDS011;68072;51.688;7.842;2023-05-21T10:10:12;15.75;;;10.57;;
78752;SDS011;68072;51.688;7.842;2023-05-21T10:12:40;16.42;;;10.50;;
78752;SDS011;68072;51.688;7.842;2023-05-21T10:15:09;13.95;;;9.95;;
78752;SDS011;68072;51.688;7.842;2023-05-21T10:17:41;15.02;;;9.73;;
78752;SDS011;68072;51.688;7.842;2023-05-21T10:20:09;14.05;;;10.02;;
78752;SDS011;68072;51.688;7.842;2023-05-21T10:22:35;15.93;;;9.70;;
78752;SDS011;68072;51.688;7.842;2023-05-21T10:27:28;14.27;;;9.05;;
78752;SDS011;68072;51.688;7.842;2023-05-21T10:29:54;16.85;;;10.50;;
78752;SDS011;68072;51.688;7.842;2023-05-21T10:32:21;17.20;;;9.80;;
78752;SDS011;68072;51.688;7.842;2023-05-21T10:34:46;13.90;;;9.80;;
78752;SDS011;68072;51.688;7.842;2023-05-21T10:37:12;13.48;;;9.10;;
78752;SDS011;68072;51.688;7.842;2023-05-21T10:39:38;14.23;;;9.65;;
78752;SDS011;68072;51.688;7.842;2023-05-21T10:42:11;12.10;;;9.55;;
78752;SDS011;68072;51.688;7.842;2023-05-21T11:00:50;12.70;;;9.10;;
78752;SDS011;68072;51.688;7.842;2023-05-21T11:03:16;14.35;;;9.60;;
78752;SDS011;68072;51.688;7.842;2023-05-21T11:08:24;12.23;;;9.43;;
78752;SDS011;68072;51.688;7.842;2023-05-21T11:10:54;15.00;;;10.05;;
78752;SDS011;68072;51.688;7.842;2023-05-21T11:13:24;17.80;;;10.60;;
78752;SDS011;68072;51.688;7.842;2023-05-21T11:16:13;15.43;;;10.77;;
78752;SDS011;68072;51.688;7.842;2023-05-21T11:29:53;13.63;;;9.90;;
78752;SDS011;68072;51.688;7.842;2023-05-21T11:32:19;13.77;;;9.52;;
78752;SDS011;68072;51.688;7.842;2023-05-21T11:34:45;16.05;;;10.70;;
78752;SDS011;68072;51.688;7.842;2023-05-21T11:39:44;14.27;;;9.48;;
78752;SDS011;68072;51.688;7.842;2023-05-21T11:42:10;13.10;;;9.43;;
78752;SDS011;68072;51.688;7.842;2023-05-21T11:44:36;15.60;;;10.77;;
78752;SDS011;68072;51.688;7.842;2023-05-21T11:47:06;14.40;;;10.63;;
78752;SDS011;68072;51.688;7.842;2023-05-21T11:49:33;14.68;;;9.30;;
78752;SDS011;68072;51.688;7.842;2023-05-21T11:51:59;14.02;;;9.95;;
78752;SDS011;68072;51.688;7.842;2023-05-21T11:54:25;13.18;;;10.23;;
78752;SDS011;68072;51.688;7.842;2023-05-21T11:56:52;16.20;;;10.07;;
78752;SDS011;68072;51.688;7.842;2023-05-21T11:59:18;17.15;;;10.27;;
78752;SDS011;68072;51.688;7.842;2023-05-21T12:01:44;12.80;;;9.88;;
78752;SDS011;68072;51.688;7.842;2023-05-21T12:04:10;15.45;;;10.85;;
78752;SDS011;68072;51.688;7.842;2023-05-21T12:06:37;13.45;;;10.75;;
78752;SDS011;68072;51.688;7.842;2023-05-21T12:09:15;17.67;;;10.75;;
78752;SDS011;68072;51.688;7.842;2023-05-21T12:11:41;13.68;;;10.05;;
78752;SDS011;68072;51.688;7.842;2023-05-21T12:14:07;16.02;;;9.93;;
78752;SDS011;68072;51.688;7.842;2023-05-21T12:16:38;11.07;;;9.23;;
78752;SDS011;68072;51.688;7.842;2023-05-21T12:19:04;11.98;;;9.50;;
78752;SDS011;68072;51.688;7.842;2023-05-21T12:21:29;14.35;;;9.77;;
78752;SDS011;68072;51.688;7.842;2023-05-21T12:23:55;13.73;;;10.95;;
78752;SDS011;68072;51.688;7.842;2023-05-21T12:26:24;17.08;;;10.35;;
78752;SDS011;68072;51.688;7.842;2023-05-21T12:28:53;12.90;;;10.13;;
78752;SDS011;68072;51.688;7.842;2023-05-21T12:31:19;13.57;;;10.13;;
78752;SDS011;68072;51.688;7.842;2023-05-21T12:33:51;13.80;;;10.65;;
78752;SDS011;68072;51.688;7.842;2023-05-21T12:36:35;12.27;;;10.13;;
78752;SDS011;68072;51.688;7.842;2023-05-21T12:39:02;13.73;;;10.32;;
78752;SDS011;68072;51.688;7.842;2023-05-21T12:41:28;11.63;;;8.65;;
78752;SDS011;68072;51.688;7.842;2023-05-21T12:43:53;14.98;;;9.73;;
78752;SDS011;68072;51.688;7.842;2023-05-21T12:46:19;12.38;;;10.25;;
78752;SDS011;68072;51.688;7.842;2023-05-21T12:48:48;12.35;;;8.93;;
78752;SDS011;68072;51.688;7.842;2023-05-21T12:51:15;15.15;;;9.68;;
78752;SDS011;68072;51.688;7.842;2023-05-21T12:53:41;12.48;;;9.43;;
78752;SDS011;68072;51.688;7.842;2023-05-21T12:56:10;10.63;;;9.10;;
78752;SDS011;68072;51.688;7.842;2023-05-21T12:58:36;12.82;;;8.80;;
78752;SDS011;68072;51.688;7.842;2023-05-21T13:01:08;12.05;;;9.57;;
78752;SDS011;68072;51.688;7.842;2023-05-21T13:03:35;12.15;;;9.30;;
78752;SDS011;68072;51.688;7.842;2023-05-21T13:06:05;15.55;;;11.35;;
78752;SDS011;68072;51.688;7.842;2023-05-21T13:08:32;14.00;;;10.15;;
78752;SDS011;68072;51.688;7.842;2023-05-21T13:11:01;14.95;;;10.43;;
78752;SDS011;68072;51.688;7.842;2023-05-21T13:13:27;11.43;;;9.23;;
78752;SDS011;68072;51.688;7.842;2023-05-21T13:15:52;10.48;;;9.23;;
78752;SDS011;68072;51.688;7.842;2023-05-21T13:18:19;11.55;;;9.90;;
78752;SDS011;68072;51.688;7.842;2023-05-21T13:20:45;14.48;;;10.35;;
78752;SDS011;68072;51.688;7.842;2023-05-21T13:23:14;13.32;;;9.95;;
78752;SDS011;68072;51.688;7.842;2023-05-21T13:25:40;13.40;;;9.88;;
78752;SDS011;68072;51.688;7.842;2023-05-21T13:28:06;11.18;;;9.23;;
78752;SDS011;68072;51.688;7.842;2023-05-21T13:30:34;14.40;;;9.57;;
78752;SDS011;68072;51.688;7.842;2023-05-21T13:33:00;11.73;;;9.70;;
78752;SDS011;68072;51.688;7.842;2023-05-21T13:35:25;12.10;;;9.93;;
78752;SDS011;68072;51.688;7.842;2023-05-21T13:37:51;11.55;;;8.82;;
78752;SDS011;68072;51.688;7.842;2023-05-21T13:40:16;12.95;;;9.05;;
78752;SDS011;68072;51.688;7.842;2023-05-21T13:42:45;11.32;;;9.63;;
78752;SDS011;68072;51.688;7.842;2023-05-21T13:45:12;10.95;;;8.90;;
78752;SDS011;68072;51.688;7.842;2023-05-21T13:47:39;10.18;;;8.40;;
78752;SDS011;68072;51.688;7.842;2023-05-21T13:50:05;15.40;;;9.75;;
78752;SDS011;68072;51.688;7.842;2023-05-21T13:52:31;13.18;;;10.20;;
78752;SDS011;68072;51.688;7.842;2023-05-21T13:54:57;15.65;;;9.73;;
78752;SDS011;68072;51.688;7.842;2023-05-21T13:57:22;12.25;;;9.60;;
78752;SDS011;68072;51.688;7.842;2023-05-21T13:59:50;12.13;;;9.60;;
78752;SDS011;68072;51.688;7.842;2023-05-21T14:02:16;10.48;;;8.93;;
78752;SDS011;68072;51.688;7.842;2023-05-21T14:04:41;11.82;;;9.68;;
78752;SDS011;68072;51.688;7.842;2023-05-21T14:07:07;13.55;;;9.70;;
78752;SDS011;68072;51.688;7.842;2023-05-21T14:09:34;12.93;;;9.55;;
78752;SDS011;68072;51.688;7.842;2023-05-21T14:11:59;12.38;;;9.07;;
78752;SDS011;68072;51.688;7.842;2023-05-21T14:14:25;11.10;;;8.93;;
78752;SDS011;68072;51.688;7.842;2023-05-21T14:16:50;11.25;;;8.80;;
78752;SDS011;68072;51.688;7.842;2023-05-21T14:19:16;13.38;;;9.70;;
78752;SDS011;68072;51.688;7.842;2023-05-21T14:21:42;13.20;;;9.13;;
78752;SDS011;68072;51.688;7.842;2023-05-21T14:24:09;12.15;;;8.65;;
78752;SDS011;68072;51.688;7.842;2023-05-21T14:26:35;11.48;;;9.23;;
78752;SDS011;68072;51.688;7.842;2023-05-21T14:29:01;12.75;;;9.02;;
78752;SDS011;68072;51.688;7.842;2023-05-21T14:31:31;11.15;;;8.70;;
78752;SDS011;68072;51.688;7.842;2023-05-21T14:33:57;11.43;;;9.07;;
78752;SDS011;68072;51.688;7.842;2023-05-21T14:36:23;14.02;;;8.93;;
78752;SDS011;68072;51.688;7.842;2023-05-21T14:38:48;11.38;;;8.73;;
78752;SDS011;68072;51.688;7.842;2023-05-21T14:41:13;13.90;;;8.82;;
78752;SDS011;68072;51.688;7.842;2023-05-21T14:43:39;10.32;;;8.85;;
78752;SDS011;68072;51.688;7.842;2023-05-21T14:46:04;10.45;;;9.13;;
78752;SDS011;68072;51.688;7.842;2023-05-21T14:48:30;12.68;;;9.73;;
78752;SDS011;68072;51.688;7.842;2023-05-21T14:50:55;10.35;;;8.70;;
78752;SDS011;68072;51.688;7.842;2023-05-21T14:53:21;11.15;;;9.07;;
78752;SDS011;68072;51.688;7.842;2023-05-21T14:55:46;10.68;;;9.38;;
78752;SDS011;68072;51.688;7.842;2023-05-21T14:58:12;11.63;;;9.93;;
78752;SDS011;68072;51.688;7.842;2023-05-21T15:00:37;11.48;;;10.25;;
78752;SDS011;68072;51.688;7.842;2023-05-21T15:03:04;11.50;;;9.80;;
78752;SDS011;68072;51.688;7.842;2023-05-21T15:05:30;12.45;;;9.05;;
78752;SDS011;68072;51.688;7.842;2023-05-21T15:07:57;10.68;;;9.27;;
78752;SDS011;68072;51.688;7.842;2023-05-21T15:10:24;13.07;;;9.50;;
78752;SDS011;68072;51.688;7.842;2023-05-21T15:12:50;12.35;;;8.95;;
78752;SDS011;68072;51.688;7.842;2023-05-21T15:15:16;12.63;;;8.82;;
78752;SDS011;68072;51.688;7.842;2023-05-21T15:17:42;10.07;;;8.98;;
78752;SDS011;68072;51.688;7.842;2023-05-21T15:20:07;13.93;;;8.75;;
78752;SDS011;68072;51.688;7.842;2023-05-21T15:22:33;9.90;;;8.75;;
78752;SDS011;68072;51.688;7.842;2023-05-21T15:24:59;11.77;;;9.75;;
78752;SDS011;68072;51.688;7.842;2023-05-21T15:27:25;11.38;;;9.15;;
78752;SDS011;68072;51.688;7.842;2023-05-21T15:29:50;11.73;;;8.70;;
78752;SDS011;68072;51.688;7.842;2023-05-21T15:32:16;12.00;;;9.82;;
78752;SDS011;68072;51.688;7.842;2023-05-21T15:34:42;14.77;;;9.73;;
78752;SDS011;68072;51.688;7.842;2023-05-21T15:37:07;11.02;;;8.90;;
78752;SDS011;68072;51.688;7.842;2023-05-21T15:39:33;11.57;;;8.82;;
78752;SDS011;68072;51.688;7.842;2023-05-21T15:41:59;11.75;;;8.98;;
78752;SDS011;68072;51.688;7.842;2023-05-21T15:44:24;11.05;;;9.73;;
78752;SDS011;68072;51.688;7.842;2023-05-21T15:46:51;10.30;;;8.98;;